Terminal Aerodrome Forecast
Issued by NWS Omaha/Valley, NE

Home | Current Version | Previous Version | Text Only | Print | Product List | Glossary On
Versions: 1 2 3 4 5 6 7 8 9 10 11 12 13 14 15 16 17 18 19 20 21 22 23 24 25 26 27 28 29 30 31 32
000
FTUS43 KOAX 111120
TAFOFK
TAF
KOFK 111120Z 1112/1212 02004KT P6SM OVC045
     FM111400 33012KT P6SM OVC025
     FM111900 32015G24KT P6SM BKN110
     FM120000 32010KT P6SM FEW130
     FM120500 31006KT P6SM FEW250=

USA.gov is the U.S. government's official web portal to all federal, state and local government web resources and services.